createdAt,value
2018-01-30T00:01:24.997Z,80.40
2018-01-30T00:03:51.573Z,80.10
2018-01-30T00:06:18.490Z,79.80
2018-01-30T00:08:45.066Z,79.80
2018-01-30T00:11:11.624Z,79.70
2018-01-30T00:13:38.552Z,79.50
2018-01-30T00:16:05.117Z,79.50
2018-01-30T00:18:31.697Z,79.40
2018-01-30T00:20:58.233Z,79.10
2018-01-30T00:23:25.165Z,78.90
2018-01-30T00:25:51.736Z,78.90
2018-01-30T00:28:18.661Z,79.30
2018-01-30T00:30:45.230Z,79.30
2018-01-30T00:33:12.178Z,79.10
2018-01-30T00:35:38.713Z,79.10
2018-01-30T00:38:05.288Z,78.50
2018-01-30T00:40:32.224Z,78.30
2018-01-30T00:42:58.748Z,78.30
2018-01-30T00:45:25.324Z,78.50
2018-01-30T00:47:52.265Z,77.80
2018-01-30T00:50:18.805Z,77.80
2018-01-30T00:52:45.413Z,77.90
2018-01-30T00:55:11.984Z,77.70
2018-01-30T00:57:38.528Z,77.50
2018-01-30T01:00:05.476Z,76.80
2018-01-30T01:02:32.040Z,76.80
2018-01-30T01:04:58.576Z,76.50
2018-01-30T01:07:25.169Z,76.80
2018-01-30T01:09:52.105Z,76.50
2018-01-30T01:12:18.640Z,76.50
2018-01-30T01:14:45.248Z,76.60
2018-01-30T01:17:11.820Z,76.60
2018-01-30T01:19:38.364Z,77.00
2018-01-30T01:22:04.925Z,76.70
2018-01-30T01:24:31.500Z,76.80
2018-01-30T01:26:58.129Z,76.80
2018-01-30T01:29:24.704Z,76.70
2018-01-30T01:31:51.274Z,76.60
2018-01-30T01:34:17.824Z,76.60
2018-01-30T01:36:44.385Z,76.80
2018-01-30T01:39:10.949Z,76.90
2018-01-30T01:41:37.477Z,77.00
2018-01-30T01:44:04.056Z,76.90
2018-01-30T01:46:30.633Z,77.30
2018-01-30T01:48:57.167Z,77.40
2018-01-30T01:51:23.737Z,77.70
2018-01-30T01:53:50.677Z,77.30
2018-01-30T01:56:17.216Z,77.30
2018-01-30T01:58:43.782Z,77.00
2018-01-30T02:01:10.361Z,77.20
2018-01-30T02:03:36.906Z,77.20
2018-01-30T02:06:03.516Z,77.00
2018-01-30T02:08:30.100Z,77.10
2018-01-30T02:10:56.645Z,77.10
2018-01-30T02:13:23.252Z,76.90
2018-01-30T02:15:49.820Z,76.90
2018-01-30T02:18:16.729Z,76.90
2018-01-30T02:20:43.321Z,76.90
2018-01-30T02:23:10.287Z,77.20
2018-01-30T02:25:37.201Z,77.30
2018-01-30T02:28:03.764Z,77.30
2018-01-30T02:30:30.344Z,77.70
2018-01-30T02:32:57.248Z,77.50
2018-01-30T02:35:23.833Z,77.50
2018-01-30T02:37:50.776Z,77.70
2018-01-30T02:40:17.361Z,77.70
2018-01-30T02:42:43.917Z,77.70
2018-01-30T02:45:10.482Z,78.00
2018-01-30T02:47:37.016Z,78.10
2018-01-30T02:50:03.633Z,78.10
2018-01-30T02:52:30.558Z,78.30
2018-01-30T02:54:57.379Z,78.30
2018-01-30T02:57:23.970Z,78.30
2018-01-30T02:59:50.546Z,78.50
2018-01-30T03:02:17.449Z,78.40
2018-01-30T03:04:44.013Z,78.40
2018-01-30T03:07:10.576Z,78.50
2018-01-30T03:09:37.153Z,78.60
2018-01-30T03:12:03.788Z,78.60
2018-01-30T03:14:30.766Z,78.80
2018-01-30T03:16:57.295Z,78.80
2018-01-30T03:19:23.865Z,78.80
2018-01-30T03:21:50.428Z,78.70
2018-01-30T03:24:16.952Z,78.80
2018-01-30T03:26:43.504Z,78.90
2018-01-30T03:29:10.086Z,79.00
2018-01-30T03:31:36.620Z,79.00
2018-01-30T03:34:03.236Z,79.00
2018-01-30T03:36:29.804Z,79.30
2018-01-30T03:38:56.337Z,79.50
2018-01-30T03:41:22.913Z,79.70
2018-01-30T03:43:49.480Z,79.70
2018-01-30T03:46:16.020Z,79.90
2018-01-30T03:48:42.585Z,79.90
2018-01-30T03:51:09.160Z,79.90
2018-01-30T03:53:35.696Z,80.10
2018-01-30T03:56:02.652Z,80.40
2018-01-30T03:58:29.582Z,80.50
2018-01-30T04:00:56.148Z,80.50
2018-01-30T04:03:22.729Z,80.50
2018-01-30T04:05:49.366Z,80.70
2018-01-30T04:08:23.336Z,81.00
2018-01-30T04:10:49.908Z,81.00
2018-01-30T04:13:16.433Z,81.10
2018-01-30T04:15:43.062Z,81.10
2018-01-30T04:18:09.627Z,81.30
2018-01-30T04:20:36.188Z,81.40
2018-01-30T04:23:02.757Z,81.50
2018-01-30T04:25:29.693Z,81.60
2018-01-30T04:27:56.229Z,81.60
2018-01-30T04:30:22.805Z,81.80
2018-01-30T04:32:49.380Z,82.10
2018-01-30T04:35:15.913Z,82.30
2018-01-30T04:37:42.867Z,82.50
2018-01-30T04:40:09.803Z,82.70
2018-01-30T04:42:36.349Z,82.70
2018-01-30T04:45:02.941Z,82.90
2018-01-30T04:47:29.493Z,83.20
2018-01-30T04:49:56.022Z,83.30
2018-01-30T04:52:22.588Z,83.40
2018-01-30T04:54:49.146Z,83.60
2018-01-30T04:57:15.672Z,83.80
2018-01-30T04:59:42.236Z,83.90
2018-01-30T05:02:08.807Z,84.00
2018-01-30T05:04:35.341Z,84.20
2018-01-30T05:07:01.930Z,84.00
2018-01-30T05:09:28.498Z,84.00
2018-01-30T05:11:55.491Z,84.10
2018-01-30T05:14:22.068Z,84.10
2018-01-30T05:16:48.657Z,84.20
2018-01-30T05:19:15.573Z,84.10
2018-01-30T05:21:42.140Z,84.10
2018-01-30T05:24:08.703Z,84.10
2018-01-30T05:26:35.750Z,84.20
2018-01-30T05:29:02.417Z,84.20
2018-01-30T05:31:28.976Z,84.40
2018-01-30T05:33:55.886Z,84.90
2018-01-30T05:36:22.530Z,84.90
2018-01-30T05:38:49.089Z,84.70
2018-01-30T05:41:16.516Z,84.90
2018-01-30T05:43:43.076Z,84.90
2018-01-30T05:46:09.652Z,85.00
2018-01-30T05:48:37.352Z,85.40
2018-01-30T05:51:04.168Z,85.40
2018-01-30T05:53:30.750Z,85.40
2018-01-30T05:55:58.125Z,85.40
2018-01-30T05:58:24.697Z,85.40
2018-01-30T06:00:51.310Z,85.60
2018-01-30T06:03:18.214Z,85.80
2018-01-30T06:05:44.772Z,85.80
2018-01-30T06:08:11.346Z,85.80
2018-01-30T06:10:38.596Z,85.80
2018-01-30T06:13:05.223Z,85.80
2018-01-30T06:15:32.313Z,85.80
2018-01-30T06:17:59.233Z,85.90
2018-01-30T06:20:26.114Z,86.00
2018-01-30T06:22:52.949Z,85.80
2018-01-30T06:25:19.498Z,85.80
2018-01-30T06:27:47.453Z,85.80
2018-01-30T06:30:14.014Z,85.70
2018-01-30T06:32:40.548Z,85.90
2018-01-30T06:35:07.116Z,85.90
2018-01-30T06:37:33.680Z,85.80
2018-01-30T06:40:00.221Z,85.90
2018-01-30T06:42:26.796Z,86.00
2018-01-30T06:44:53.730Z,86.00
2018-01-30T06:47:20.245Z,86.00
2018-01-30T06:49:46.800Z,86.00
2018-01-30T06:52:13.365Z,85.90
2018-01-30T06:54:39.928Z,86.00
2018-01-30T06:57:13.404Z,85.90
2018-01-30T06:59:39.959Z,85.90
2018-01-30T07:02:06.489Z,86.00
2018-01-30T07:04:33.112Z,86.00
2018-01-30T07:06:59.685Z,86.00
2018-01-30T07:09:26.216Z,86.00
2018-01-30T07:11:52.785Z,86.10
2018-01-30T07:14:19.356Z,86.00
2018-01-30T07:16:45.902Z,86.10
2018-01-30T07:19:12.503Z,86.10
2018-01-30T07:21:39.069Z,86.10
2018-01-30T07:24:05.606Z,85.90
2018-01-30T07:26:32.186Z,85.80
2018-01-30T07:28:58.756Z,85.80
2018-01-30T07:31:25.311Z,85.90
2018-01-30T07:33:52.253Z,85.30
2018-01-30T07:36:18.821Z,85.30
2018-01-30T07:38:45.734Z,84.50
2018-01-30T07:41:12.306Z,84.50
2018-01-30T07:43:38.893Z,84.20
2018-01-30T07:46:05.433Z,84.40
2018-01-30T07:48:31.992Z,84.70
2018-01-30T07:50:58.561Z,84.70
2018-01-30T07:53:25.123Z,84.70
2018-01-30T07:55:51.725Z,84.90
2018-01-30T07:58:18.356Z,84.60
2018-01-30T08:00:45.336Z,83.00
2018-01-30T08:03:11.901Z,83.00
2018-01-30T08:05:38.477Z,83.00
2018-01-30T08:08:05.041Z,82.30
2018-01-30T08:10:31.609Z,82.00
2018-01-30T08:12:58.561Z,82.40
2018-01-30T08:15:25.464Z,82.60
2018-01-30T08:17:52.092Z,82.60
2018-01-30T08:20:18.658Z,82.50
2018-01-30T08:22:45.233Z,81.80
2018-01-30T08:25:12.197Z,81.30
2018-01-30T08:27:38.765Z,81.30
2018-01-30T08:30:05.686Z,80.80
2018-01-30T08:32:32.244Z,80.80
2018-01-30T08:34:58.825Z,80.40
2018-01-30T08:37:25.365Z,80.70
2018-01-30T08:39:52.297Z,80.00
2018-01-30T08:42:18.961Z,80.00
2018-01-30T08:44:45.901Z,82.20
2018-01-30T08:47:12.476Z,82.20
2018-01-30T08:49:39.478Z,84.70
2018-01-30T08:52:06.010Z,84.70
2018-01-30T08:54:32.582Z,85.10
2018-01-30T08:56:59.161Z,85.90
2018-01-30T08:59:26.068Z,86.30
2018-01-30T09:01:52.631Z,86.30
2018-01-30T09:04:19.204Z,86.70
2018-01-30T09:06:45.737Z,86.70
2018-01-30T09:09:12.313Z,87.30
2018-01-30T09:11:39.258Z,87.90
2018-01-30T09:14:05.793Z,87.90
2018-01-30T09:16:32.400Z,88.20
2018-01-30T09:18:59.005Z,87.90
2018-01-30T09:21:25.553Z,87.70
2018-01-30T09:23:52.156Z,87.80
2018-01-30T09:26:18.729Z,87.60
2018-01-30T09:28:45.293Z,87.60
2018-01-30T09:31:12.250Z,87.00
2018-01-30T09:33:38.817Z,87.00
2018-01-30T09:36:05.752Z,86.20
2018-01-30T09:38:32.321Z,86.30
2018-01-30T09:40:59.312Z,86.00
2018-01-30T09:43:25.884Z,86.00
2018-01-30T09:45:52.444Z,86.30
2018-01-30T09:48:19.026Z,86.10
2018-01-30T09:50:45.564Z,86.00
2018-01-30T09:53:12.509Z,86.20
2018-01-30T09:55:39.445Z,85.80
2018-01-30T09:58:05.981Z,85.80
2018-01-30T10:00:32.555Z,85.90
2018-01-30T10:02:59.507Z,85.20
2018-01-30T10:05:26.077Z,85.20
2018-01-30T10:07:53.030Z,85.00
2018-01-30T10:10:20.002Z,85.00
2018-01-30T10:12:46.544Z,85.00
2018-01-30T10:15:20.423Z,85.00
2018-01-30T10:17:46.997Z,85.00
2018-01-30T10:20:13.950Z,84.10
2018-01-30T10:22:40.893Z,84.20
2018-01-30T10:25:07.464Z,84.30
2018-01-30T10:27:33.997Z,84.00
2018-01-30T10:30:00.937Z,83.10
2018-01-30T10:32:27.563Z,83.10
2018-01-30T10:34:54.132Z,83.20
2018-01-30T10:37:20.706Z,83.50
2018-01-30T10:39:47.689Z,83.80
2018-01-30T10:42:14.292Z,83.80
2018-01-30T10:44:41.249Z,84.60
2018-01-30T10:47:07.808Z,84.60
2018-01-30T10:49:34.905Z,84.20
2018-01-30T10:52:01.477Z,84.20
2018-01-30T10:54:28.214Z,84.60
2018-01-30T10:56:54.756Z,84.40
2018-01-30T10:59:21.329Z,84.80
2018-01-30T11:01:48.021Z,84.80
2018-01-30T11:04:15.030Z,84.70
2018-01-30T11:06:41.604Z,84.70
2018-01-30T11:09:08.282Z,84.90
2018-01-30T11:11:35.193Z,84.90
2018-01-30T11:14:01.761Z,85.00
2018-01-30T11:16:28.712Z,85.10
2018-01-30T11:18:55.341Z,85.10
2018-01-30T11:21:21.929Z,85.30
2018-01-30T11:23:48.869Z,84.80
2018-01-30T11:26:15.729Z,84.80
2018-01-30T11:28:42.309Z,85.00
2018-01-30T11:31:08.956Z,84.80
2018-01-30T11:33:35.516Z,84.90
2018-01-30T11:36:02.157Z,83.60
2018-01-30T11:38:28.786Z,84.70
2018-01-30T11:40:55.729Z,83.20
2018-01-30T11:43:22.715Z,83.80
2018-01-30T11:45:49.387Z,83.80
2018-01-30T11:48:15.996Z,84.30
2018-01-30T11:50:42.925Z,84.40
2018-01-30T11:53:09.574Z,84.40
2018-01-30T11:55:36.109Z,84.70
2018-01-30T11:58:02.677Z,84.40
2018-01-30T12:00:29.313Z,84.70
2018-01-30T12:02:55.880Z,85.50
2018-01-30T12:05:22.453Z,85.90
2018-01-30T12:07:49.015Z,86.10
2018-01-30T12:10:15.560Z,86.40
2018-01-30T12:12:42.124Z,86.40
2018-01-30T12:15:08.689Z,87.20
2018-01-30T12:17:35.225Z,86.20
2018-01-30T12:20:01.829Z,86.40
2018-01-30T12:22:28.784Z,87.00
2018-01-30T12:24:55.720Z,87.00
2018-01-30T12:27:22.300Z,87.00
2018-01-30T12:29:48.894Z,86.90
2018-01-30T12:32:15.429Z,86.70
2018-01-30T12:34:42.000Z,86.30
2018-01-30T12:37:08.569Z,86.30
2018-01-30T12:39:35.521Z,86.50
2018-01-30T12:42:02.109Z,86.40
2018-01-30T12:44:28.664Z,86.10
2018-01-30T12:46:55.201Z,86.30
2018-01-30T12:49:21.773Z,86.70
2018-01-30T12:51:48.340Z,86.80
2018-01-30T12:54:14.873Z,87.20
2018-01-30T12:56:41.440Z,87.30
2018-01-30T12:59:08.025Z,87.20
2018-01-30T13:01:34.573Z,86.40
2018-01-30T13:04:01.184Z,86.30
2018-01-30T13:06:27.770Z,86.40
2018-01-30T13:08:54.309Z,85.80
2018-01-30T13:11:20.886Z,85.20
2018-01-30T13:13:47.458Z,85.00
2018-01-30T13:16:14.007Z,85.50
2018-01-30T13:18:40.590Z,86.00
2018-01-30T13:21:07.568Z,84.40
2018-01-30T13:23:34.134Z,84.40
2018-01-30T13:26:00.709Z,84.70
2018-01-30T13:28:27.381Z,85.00
2018-01-30T13:30:54.290Z,85.20
2018-01-30T13:33:20.945Z,85.20
2018-01-30T13:35:47.517Z,85.20
2018-01-30T13:38:14.069Z,85.10
2018-01-30T13:40:40.644Z,84.90
2018-01-30T13:43:07.592Z,84.40
2018-01-30T13:45:34.500Z,84.20
2018-01-30T13:48:01.061Z,84.20
2018-01-30T13:50:27.633Z,85.00
2018-01-30T13:52:54.569Z,85.00
2018-01-30T13:55:21.142Z,85.10
2018-01-30T13:57:48.085Z,84.20
2018-01-30T14:00:14.633Z,84.20
2018-01-30T14:02:41.297Z,84.50
2018-01-30T14:05:07.860Z,84.50
2018-01-30T14:07:34.496Z,84.70
2018-01-30T14:10:01.072Z,84.70
2018-01-30T14:12:27.654Z,84.70
2018-01-30T14:14:54.288Z,84.90
2018-01-30T14:17:20.896Z,84.60
2018-01-30T14:19:47.880Z,84.70
2018-01-30T14:22:14.421Z,84.70
2018-01-30T14:24:40.993Z,85.20
2018-01-30T14:27:07.565Z,84.40
2018-01-30T14:29:34.106Z,83.90
2018-01-30T14:32:00.762Z,84.50
2018-01-30T14:34:27.301Z,85.50
2018-01-30T14:36:53.852Z,84.80
2018-01-30T14:39:20.420Z,84.60
2018-01-30T14:41:47.356Z,85.30
2018-01-30T14:44:13.898Z,85.30
2018-01-30T14:46:40.876Z,85.60
2018-01-30T14:49:07.457Z,85.60
2018-01-30T14:51:34.012Z,85.60
2018-01-30T14:54:00.585Z,85.40
2018-01-30T14:56:27.149Z,85.40
2018-01-30T14:58:53.692Z,85.70
2018-01-30T15:01:20.275Z,85.60
2018-01-30T15:03:47.218Z,86.10
2018-01-30T15:06:13.745Z,86.10
2018-01-30T15:08:40.304Z,85.50
2018-01-30T15:11:06.868Z,85.40
2018-01-30T15:13:33.836Z,85.90
2018-01-30T15:16:00.413Z,85.90
2018-01-30T15:18:26.979Z,85.60
2018-01-30T15:20:53.565Z,85.60
2018-01-30T15:23:20.501Z,85.80
2018-01-30T15:25:47.461Z,86.30
2018-01-30T15:28:14.008Z,86.30
2018-01-30T15:30:40.584Z,86.40
2018-01-30T15:33:07.537Z,86.30
2018-01-30T15:35:34.441Z,86.40
2018-01-30T15:38:01.019Z,86.40
2018-01-30T15:40:27.596Z,86.40
2018-01-30T15:42:54.141Z,86.40
2018-01-30T15:45:20.713Z,86.50
2018-01-30T15:47:47.301Z,86.70
2018-01-30T15:50:13.861Z,87.00
2018-01-30T15:52:40.430Z,86.80
2018-01-30T15:55:06.993Z,86.80
2018-01-30T15:57:33.573Z,87.00
2018-01-30T16:00:00.137Z,87.10
2018-01-30T16:02:26.710Z,87.10
2018-01-30T16:04:53.612Z,86.80
2018-01-30T16:07:20.189Z,86.80
2018-01-30T16:09:46.760Z,87.00
2018-01-30T16:12:13.312Z,87.10
2018-01-30T16:14:39.889Z,87.10
2018-01-30T16:17:06.477Z,87.10
2018-01-30T16:19:33.076Z,87.10
2018-01-30T16:21:59.665Z,87.10
2018-01-30T16:24:26.286Z,86.90
2018-01-30T16:26:52.833Z,86.90
2018-01-30T16:29:19.447Z,87.00
2018-01-30T16:31:46.393Z,86.70
2018-01-30T16:34:13.346Z,86.70
2018-01-30T16:36:39.913Z,86.70
2018-01-30T16:39:06.866Z,87.00
2018-01-30T16:41:33.776Z,87.00
2018-01-30T16:44:00.334Z,87.00
2018-01-30T16:46:26.909Z,87.00
2018-01-30T16:48:53.870Z,87.00
2018-01-30T16:51:20.813Z,87.10
2018-01-30T16:53:47.412Z,87.10
2018-01-30T16:59:08.224Z,87.40
2018-01-30T17:01:35.169Z,87.90
2018-01-30T17:04:02.154Z,88.10
2018-01-30T17:06:28.698Z,88.10
2018-01-30T17:08:55.276Z,88.20
2018-01-30T17:11:21.849Z,88.10
2018-01-30T17:13:48.401Z,87.70
2018-01-30T17:16:14.969Z,87.60
2018-01-30T17:18:41.905Z,87.50
2018-01-30T17:21:08.483Z,87.50
2018-01-30T17:23:35.069Z,87.60
2018-01-30T17:26:01.636Z,87.60
2018-01-30T17:28:28.181Z,87.70
2018-01-30T17:30:54.762Z,87.80
2018-01-30T17:33:21.713Z,88.20
2018-01-30T17:35:48.630Z,88.30
2018-01-30T17:38:15.205Z,88.30
2018-01-30T17:40:41.773Z,88.40
2018-01-30T17:43:08.724Z,88.50
2018-01-30T17:45:35.681Z,88.40
2018-01-30T17:48:02.681Z,88.40
2018-01-30T17:50:29.225Z,88.40
2018-01-30T17:52:55.809Z,88.40
2018-01-30T17:55:22.401Z,88.60
2018-01-30T17:57:48.941Z,88.60
2018-01-30T18:00:15.888Z,89.30
2018-01-30T18:02:42.828Z,89.40
2018-01-30T18:05:09.397Z,89.40
2018-01-30T18:07:36.426Z,89.60
2018-01-30T18:10:03.068Z,89.60
2018-01-30T18:12:29.620Z,89.90
2018-01-30T18:14:56.238Z,90.00
2018-01-30T18:17:22.801Z,89.80
2018-01-30T18:19:49.388Z,90.10
2018-01-30T18:22:15.961Z,89.50
2018-01-30T18:24:42.598Z,89.90
2018-01-30T18:27:09.136Z,90.40
2018-01-30T18:29:35.725Z,90.00
2018-01-30T18:32:02.338Z,90.50
2018-01-30T18:34:29.241Z,90.50
2018-01-30T18:36:55.816Z,90.50
2018-01-30T18:39:29.424Z,90.60
2018-01-30T18:41:56.017Z,90.50
2018-01-30T18:44:22.648Z,90.30
2018-01-30T18:46:49.185Z,90.00
2018-01-30T18:49:16.133Z,90.30
2018-01-30T18:51:42.717Z,90.30
2018-01-30T18:54:09.261Z,90.10
2018-01-30T18:59:08.948Z,90.20
2018-01-30T19:01:35.533Z,90.00
2018-01-30T19:04:02.469Z,90.10
2018-01-30T19:06:29.059Z,90.20
2018-01-30T19:08:55.633Z,90.40
2018-01-30T19:11:22.194Z,90.10
2018-01-30T19:13:49.364Z,89.80
2018-01-30T19:16:15.950Z,89.80
2018-01-30T19:18:42.914Z,90.20
2018-01-30T19:21:09.493Z,90.20
2018-01-30T19:23:36.141Z,90.50
2018-01-30T19:26:03.619Z,90.20
2018-01-30T19:28:30.155Z,90.10
2018-01-30T19:30:56.777Z,90.30
2018-01-30T19:33:23.339Z,90.50
2018-01-30T19:35:49.910Z,90.10
2018-01-30T19:38:16.497Z,90.60
2018-01-30T19:40:43.446Z,90.70
2018-01-30T19:43:09.989Z,90.70
2018-01-30T19:45:36.577Z,90.90
2018-01-30T19:48:03.232Z,90.60
2018-01-30T19:50:29.814Z,90.60
2018-01-30T19:52:56.397Z,90.40
2018-01-30T19:55:23.344Z,90.30
2018-01-30T19:57:49.925Z,90.30
2018-01-30T20:00:16.496Z,90.10
2018-01-30T20:02:43.185Z,90.30
2018-01-30T20:05:09.742Z,90.10
2018-01-30T20:07:37.509Z,90.10
2018-01-30T20:10:05.057Z,90.10
2018-01-30T20:12:31.605Z,89.60
2018-01-30T20:14:58.185Z,89.90
2018-01-30T20:17:32.024Z,90.20
2018-01-30T20:19:58.633Z,90.20
2018-01-30T20:22:25.266Z,90.40
2018-01-30T20:24:51.929Z,90.40
2018-01-30T20:27:18.505Z,90.50
2018-01-30T20:29:45.885Z,89.80
2018-01-30T20:32:12.417Z,89.80
2018-01-30T20:34:39.374Z,90.00
2018-01-30T20:37:06.152Z,90.00
2018-01-30T20:39:32.693Z,89.80
2018-01-30T20:41:59.269Z,90.20
2018-01-30T20:44:25.968Z,90.50
2018-01-30T20:46:52.514Z,90.00
2018-01-30T20:49:19.092Z,89.80
2018-01-30T20:51:46.335Z,89.50
2018-01-30T20:54:14.270Z,89.50
2018-01-30T20:56:40.845Z,89.50
2018-01-30T20:59:07.407Z,89.40
2018-01-30T21:01:34.338Z,89.40
2018-01-30T21:04:00.920Z,89.40
2018-01-30T21:06:27.574Z,89.30
2018-01-30T21:08:54.133Z,89.20
2018-01-30T21:11:20.713Z,89.20
2018-01-30T21:13:47.369Z,89.20
2018-01-30T21:16:13.962Z,88.90
2018-01-30T21:18:40.527Z,89.00
2018-01-30T21:21:07.162Z,89.10
2018-01-30T21:23:33.721Z,89.00
2018-01-30T21:26:00.341Z,88.90
2018-01-30T21:28:27.367Z,89.00
2018-01-30T21:30:53.912Z,89.00
2018-01-30T21:33:20.489Z,88.70
2018-01-30T21:35:47.492Z,88.90
2018-01-30T21:38:14.016Z,88.80
2018-01-30T21:40:40.618Z,89.10
2018-01-30T21:43:07.197Z,89.10
2018-01-30T21:45:34.132Z,88.70
2018-01-30T21:48:00.722Z,88.70
2018-01-30T21:50:27.289Z,89.20
2018-01-30T21:52:53.849Z,89.30
2018-01-30T21:55:20.416Z,88.90
2018-01-30T21:57:46.998Z,89.20
2018-01-30T22:00:13.923Z,89.20
2018-01-30T22:02:40.572Z,89.20
2018-01-30T22:05:07.145Z,89.40
2018-01-30T22:07:34.055Z,89.50
2018-01-30T22:10:00.621Z,89.50
2018-01-30T22:12:27.202Z,89.90
2018-01-30T22:14:54.152Z,89.70
2018-01-30T22:17:21.097Z,90.00
2018-01-30T22:19:48.049Z,89.50
2018-01-30T22:22:14.997Z,89.90
2018-01-30T22:24:41.560Z,89.90
2018-01-30T22:27:08.141Z,89.60
2018-01-30T22:29:34.681Z,90.10
2018-01-30T22:32:01.249Z,90.40
2018-01-30T22:34:27.824Z,90.10
2018-01-30T22:36:54.662Z,89.60
2018-01-30T22:39:21.228Z,89.30
2018-01-30T22:41:47.805Z,90.00
2018-01-30T22:44:14.729Z,89.80
2018-01-30T22:46:41.300Z,89.80
